Etusivu
METAR-TAF:

METAR-TAF

Lentoasemat :

Carlsbad, New Mexico, Yhdysvallat

Leveyspiiri: 32-20-15N, Pituuspiiri: 104-15-48W, korkeus merenpinnasta: 1004 m

Tämänhetkinen sää

Tämä raportti tehtiin 47 minuuttia sitten, kello 14.53 UTC
Tuuli 9 kn lännestä/luoteesta
Lämpötila 6°C
Kosteus 56%
Ilmanpaine 1012 hPa
Näkyvyys: 16.1 km
selkeää

METAR: KCNM 261453Z AUTO 30009KT 10SM CLR 06/M02 A2987 RMK AO2 SLP107 T00561022 53033 $

Aika: 08:40 (15:40 UTC)

Sääennuste

Tämä raportti tehtiin 4 tuntia ja 20 minuuttia sitten, kello 11.20 UTC
Ennuste voimassa 26. päivästä klo 12 UTC - 27. päivään klo 12 UTC
Tuuli 11 kn lännestä
Näkyvyys: 10 km
Muutamia pilviä 25000 ft:n korkeudessa
From 26. päivästä klo 1700 UTC
Tuuli 28 kn lännestä puuskistuen 36 kn:hen
Näkyvyys: 10 km
Hajonneita pilviä 10000 ft:n korkeudessa

TAF: KCNM 261120Z 2612/2712 26011KT P6SM FEW250 FM261700 26028G36KT P6SM BKN100

Säähavainnot ja -ennusteet yli 4000 lentoasemalta (METAR- ja TAF-raportit).

Käytössä olevat sääasemat on merkitty karttaan keltaisilla ja punaisilla pisteillä.

Aseta hiiri pisteen päälle nähdäksesi sääaseman nimen.

Klikkaa sitten nähdäksesi säähavainnot ja -ennusteet.

Kartan vaihtaminen: klikkaa mustalla rastilla varustettuja vihreitä pisteitä, niin voit zoomata sisään; viivalla varustettua vihreää pistettä, niin voit zoomata ulos tai vihreitä nuolia, niin pääset viereisille kartoille.


METAR-TAF: